createdAt,value
2022-12-28T00:02:34.158Z,10.27
2022-12-28T00:05:03.060Z,11.55
2022-12-28T00:07:41.033Z,7.88
2022-12-28T00:10:11.516Z,7.22
2022-12-28T00:12:43.038Z,8.73
2022-12-28T00:15:12.269Z,10.30
2022-12-28T00:17:41.016Z,9.88
2022-12-28T00:20:15.499Z,17.95
2022-12-28T00:22:48.824Z,13.23
2022-12-28T00:25:19.419Z,9.68
2022-12-28T00:27:49.584Z,10.55
2022-12-28T00:30:22.079Z,12.80
2022-12-28T00:32:53.516Z,11.40
2022-12-28T00:35:24.039Z,8.02
2022-12-28T00:37:57.023Z,10.18
2022-12-28T00:40:31.245Z,9.27
2022-12-28T00:42:59.984Z,8.85
2022-12-28T00:45:33.651Z,12.38
2022-12-28T00:48:04.303Z,13.48
2022-12-28T00:50:34.990Z,10.40
2022-12-28T00:53:03.800Z,10.68
2022-12-28T00:55:35.924Z,20.65
2022-12-28T00:58:07.275Z,19.42
2022-12-28T01:00:36.406Z,15.50
2022-12-28T01:03:05.345Z,11.77
2022-12-28T01:05:35.217Z,11.85
2022-12-28T01:08:04.424Z,22.23
2022-12-28T01:10:34.657Z,21.50
2022-12-28T01:13:03.244Z,15.82
2022-12-28T01:15:31.838Z,15.50
2022-12-28T01:18:03.267Z,13.30
2022-12-28T01:20:34.240Z,15.00
2022-12-28T01:23:03.572Z,15.10
2022-12-28T01:25:35.126Z,11.82
2022-12-28T01:28:05.527Z,10.20
2022-12-28T01:30:34.307Z,9.32
2022-12-28T01:33:11.392Z,7.18
2022-12-28T01:35:40.086Z,7.50
2022-12-28T01:38:08.635Z,8.43
2022-12-28T01:40:37.595Z,5.97
2022-12-28T01:43:09.438Z,8.50
2022-12-28T01:45:40.228Z,8.25
2022-12-28T01:48:16.934Z,6.10
2022-12-28T01:50:47.044Z,6.55
2022-12-28T01:53:18.340Z,7.50
2022-12-28T01:55:49.907Z,5.63
2022-12-28T01:58:28.527Z,5.38
2022-12-28T02:00:58.613Z,6.20
2022-12-28T02:03:29.017Z,5.90
2022-12-28T02:06:04.715Z,6.00
2022-12-28T02:08:43.200Z,4.70
2022-12-28T02:11:15.985Z,7.70
2022-12-28T02:13:50.359Z,4.50
2022-12-28T02:16:21.381Z,6.68
2022-12-28T02:18:51.559Z,4.57
2022-12-28T02:21:29.592Z,5.05
2022-12-28T02:24:24.008Z,4.55
2022-12-28T02:29:34.528Z,6.07
2022-12-28T02:32:10.000Z,8.13
2022-12-28T02:34:46.512Z,5.65
2022-12-28T02:37:42.552Z,5.63
2022-12-28T02:40:28.827Z,5.47
2022-12-28T02:46:41.039Z,6.68
2022-12-28T02:52:19.933Z,6.30
2022-12-28T02:55:28.868Z,5.32
2022-12-28T02:58:36.315Z,5.50
2022-12-28T03:01:38.307Z,4.82
2022-12-28T03:04:39.218Z,4.18
2022-12-28T03:07:46.436Z,6.38
2022-12-28T03:11:20.705Z,6.50
2022-12-28T03:14:22.320Z,3.80
2022-12-28T03:17:43.251Z,4.65
2022-12-28T03:20:50.765Z,5.75
2022-12-28T03:23:50.898Z,4.72
2022-12-28T03:26:50.754Z,3.85
2022-12-28T03:29:53.665Z,5.15
2022-12-28T03:33:21.069Z,5.20
2022-12-28T03:51:55.487Z,7.13
2022-12-28T03:55:10.377Z,6.57
2022-12-28T03:58:21.782Z,4.13
2022-12-28T04:02:44.842Z,7.10
2022-12-28T04:13:21.100Z,5.88
2022-12-28T04:24:57.813Z,4.97
2022-12-28T04:27:21.994Z,5.07
2022-12-28T05:11:27.106Z,5.15
2022-12-28T05:14:37.508Z,5.72
2022-12-28T05:17:41.894Z,5.63
2022-12-28T05:44:16.456Z,6.13
2022-12-28T05:55:11.100Z,6.28
2022-12-28T06:06:50.323Z,4.90
2022-12-28T06:10:06.061Z,5.47
2022-12-28T06:41:16.800Z,5.53
2022-12-28T07:01:35.465Z,2.65
2022-12-28T08:44:25.336Z,3.30
2022-12-28T08:47:48.899Z,2.13
2022-12-28T08:51:37.463Z,3.05
2022-12-28T09:00:59.541Z,4.47
2022-12-28T09:04:26.588Z,3.00
2022-12-28T09:11:33.693Z,2.40
2022-12-28T12:25:40.099Z,1.63
2022-12-28T12:28:10.855Z,1.85
2022-12-28T12:30:46.412Z,1.58
2022-12-28T12:33:38.006Z,1.50
2022-12-28T12:36:11.756Z,2.45
2022-12-28T12:41:20.718Z,1.33
2022-12-28T12:43:56.083Z,1.70
2022-12-28T12:46:49.481Z,1.83
2022-12-28T12:49:42.032Z,1.48
2022-12-28T12:52:18.737Z,3.92
2022-12-28T12:54:56.112Z,2.13
2022-12-28T12:57:32.123Z,1.75
2022-12-28T13:00:15.109Z,2.00
2022-12-28T13:02:54.555Z,2.08
2022-12-28T13:05:24.527Z,1.48
2022-12-28T13:07:55.457Z,2.10
2022-12-28T13:10:27.682Z,2.47
2022-12-28T13:12:59.581Z,2.72
2022-12-28T13:15:28.379Z,1.88
2022-12-28T13:18:34.192Z,2.60
2022-12-28T13:20:56.497Z,2.15
2022-12-28T13:23:25.066Z,2.28
2022-12-28T13:25:54.632Z,2.50
2022-12-28T13:28:25.480Z,3.20
2022-12-28T13:30:57.734Z,1.20
2022-12-28T13:33:26.189Z,1.75
2022-12-28T13:36:06.402Z,3.47
2022-12-28T13:38:34.832Z,1.95
2022-12-28T13:41:04.228Z,1.63
2022-12-28T13:43:53.655Z,2.28
2022-12-28T13:46:23.951Z,2.95
2022-12-28T13:48:53.973Z,2.30
2022-12-28T13:51:28.209Z,2.08
2022-12-28T13:54:00.191Z,3.05
2022-12-28T13:56:29.611Z,2.05
2022-12-28T13:59:00.245Z,1.48
2022-12-28T14:01:35.357Z,1.90
2022-12-28T14:04:42.442Z,1.52
2022-12-28T14:06:55.163Z,2.00
2022-12-28T14:09:23.716Z,3.63
2022-12-28T14:11:52.727Z,2.35
2022-12-28T14:14:26.469Z,2.42
2022-12-28T14:16:57.055Z,2.17
2022-12-28T14:19:25.564Z,2.63
2022-12-28T14:21:54.311Z,2.05
2022-12-28T14:24:26.834Z,1.60
2022-12-28T14:26:58.017Z,2.15
2022-12-28T14:29:29.316Z,2.22
2022-12-28T14:32:06.452Z,2.28
2022-12-28T14:34:37.792Z,2.38
2022-12-28T14:37:09.954Z,3.85
2022-12-28T14:39:41.850Z,2.28
2022-12-28T14:42:20.272Z,2.47
2022-12-28T14:44:57.498Z,3.08
2022-12-28T14:47:48.912Z,3.13
2022-12-28T14:50:18.472Z,1.90
2022-12-28T14:52:49.698Z,2.05
2022-12-28T14:55:22.920Z,1.23
2022-12-28T14:57:51.975Z,2.50
2022-12-28T15:00:25.272Z,2.70
2022-12-28T15:03:26.544Z,2.45
2022-12-28T15:05:58.169Z,2.40
2022-12-28T15:08:38.535Z,9.35
2022-12-28T15:11:20.198Z,6.63
2022-12-28T15:14:13.073Z,5.63
2022-12-28T15:16:50.289Z,7.97
2022-12-28T15:19:35.086Z,6.55
2022-12-28T15:22:24.712Z,7.60
2022-12-28T15:25:02.192Z,6.35
2022-12-28T15:27:31.320Z,6.40
2022-12-28T15:30:08.423Z,7.72
2022-12-28T15:32:39.470Z,5.28
2022-12-28T15:35:15.669Z,5.35
2022-12-28T15:37:56.653Z,5.38
2022-12-28T15:40:25.332Z,4.57
2022-12-28T15:42:54.224Z,5.05
2022-12-28T15:45:51.745Z,5.50
2022-12-28T15:48:33.874Z,4.55
2022-12-28T15:51:11.651Z,9.60
2022-12-28T15:53:45.681Z,4.95
2022-12-28T15:56:27.423Z,7.25
2022-12-28T15:58:57.866Z,11.52
2022-12-28T16:01:28.934Z,21.63
2022-12-28T16:04:50.163Z,20.98
2022-12-28T16:07:22.624Z,8.95
2022-12-28T16:10:13.889Z,5.38
2022-12-28T16:12:55.003Z,8.35
2022-12-28T16:15:26.050Z,7.95
2022-12-28T16:18:03.145Z,8.07
2022-12-28T16:20:47.563Z,9.02
2022-12-28T16:23:44.463Z,7.38
2022-12-28T16:26:23.035Z,7.63
2022-12-28T16:29:07.692Z,9.13
2022-12-28T16:31:37.024Z,8.82
2022-12-28T16:34:08.155Z,8.38
2022-12-28T16:36:47.494Z,14.52
2022-12-28T16:39:21.195Z,8.00
2022-12-28T16:41:53.303Z,4.93
2022-12-28T16:44:28.248Z,21.77
2022-12-28T16:47:15.493Z,18.05
2022-12-28T16:49:48.421Z,12.75
2022-12-28T16:52:35.729Z,9.55
2022-12-28T16:55:04.476Z,11.25
2022-12-28T16:57:34.526Z,5.63
2022-12-28T17:00:03.789Z,7.03
2022-12-28T17:02:32.378Z,5.28
2022-12-28T17:05:01.159Z,5.43
2022-12-28T17:07:29.724Z,6.43
2022-12-28T17:09:58.252Z,5.32
2022-12-28T17:12:26.701Z,6.93
2022-12-28T17:15:04.615Z,7.53
2022-12-28T17:17:36.541Z,3.92
2022-12-28T17:20:13.799Z,4.30
2022-12-28T17:22:43.624Z,5.22
2022-12-28T17:25:12.171Z,6.53
2022-12-28T17:27:41.909Z,3.35
2022-12-28T17:30:12.582Z,5.75
2022-12-28T17:32:52.164Z,4.32
2022-12-28T17:35:39.444Z,3.38
2022-12-28T17:38:09.124Z,4.38
2022-12-28T17:40:42.934Z,5.38
2022-12-28T17:45:57.552Z,4.70
2022-12-28T17:48:29.179Z,4.00
2022-12-28T17:51:00.622Z,10.27
2022-12-28T17:53:33.441Z,3.22
2022-12-28T17:56:05.453Z,3.63
2022-12-28T17:58:36.404Z,3.90
2022-12-28T18:01:08.059Z,3.38
2022-12-28T18:03:37.263Z,3.40
2022-12-28T18:06:09.137Z,2.90
2022-12-28T18:08:40.098Z,3.10
2022-12-28T18:11:11.374Z,3.92
2022-12-28T18:13:45.317Z,6.60
2022-12-28T18:16:16.364Z,3.92
2022-12-28T18:18:48.029Z,4.25
2022-12-28T18:21:22.022Z,3.85
2022-12-28T18:23:55.004Z,3.42
2022-12-28T18:26:27.633Z,2.67
2022-12-28T18:29:11.588Z,2.90
2022-12-28T18:32:02.054Z,5.35
2022-12-28T18:34:37.647Z,3.80
2022-12-28T18:37:24.345Z,4.00
2022-12-28T18:39:55.989Z,2.78
2022-12-28T18:42:25.345Z,2.88
2022-12-28T18:44:56.679Z,5.13
2022-12-28T18:48:03.068Z,3.55
2022-12-28T18:50:26.899Z,4.72
2022-12-28T18:53:01.073Z,4.32
2022-12-28T18:55:50.286Z,3.38
2022-12-28T18:58:27.332Z,3.88
2022-12-28T19:01:20.529Z,2.92
2022-12-28T19:04:10.059Z,3.38
2022-12-28T19:06:41.736Z,3.20
2022-12-28T19:09:15.044Z,3.80
2022-12-28T19:11:44.247Z,4.28
2022-12-28T19:14:21.129Z,3.22
2022-12-28T19:16:53.527Z,4.20
2022-12-28T19:19:35.478Z,4.22
2022-12-28T19:22:04.289Z,3.38
2022-12-28T19:24:38.151Z,3.50
2022-12-28T19:29:48.338Z,6.10
2022-12-28T19:32:19.407Z,3.80
2022-12-28T19:34:53.808Z,3.78
2022-12-28T19:37:28.633Z,4.18
2022-12-28T19:40:28.811Z,4.72
2022-12-28T19:43:36.973Z,4.47
2022-12-28T19:46:16.588Z,3.42
2022-12-28T19:49:17.251Z,3.72
2022-12-28T19:51:55.807Z,4.65
2022-12-28T19:54:27.580Z,5.63
2022-12-28T19:57:02.559Z,4.63
2022-12-28T19:59:49.576Z,3.90
2022-12-28T20:02:23.667Z,3.20
2022-12-28T20:04:58.572Z,3.90
2022-12-28T20:07:40.380Z,3.58
2022-12-28T20:10:18.569Z,4.25
2022-12-28T20:12:49.995Z,3.28
2022-12-28T20:15:27.087Z,2.38
2022-12-28T20:17:58.105Z,3.85
2022-12-28T20:20:32.958Z,3.08
2022-12-28T20:23:22.644Z,3.95
2022-12-28T20:25:52.451Z,3.60
2022-12-28T20:28:22.302Z,2.83
2022-12-28T20:30:57.484Z,3.95
2022-12-28T20:33:32.132Z,2.50
2022-12-28T20:36:04.464Z,3.38
2022-12-28T20:38:48.011Z,2.60
2022-12-28T20:41:42.515Z,3.53
2022-12-28T20:44:13.779Z,3.22
2022-12-28T20:46:47.705Z,4.07
2022-12-28T20:49:19.043Z,3.00
2022-12-28T20:51:52.308Z,3.40
2022-12-28T20:54:23.683Z,3.05
2022-12-28T20:56:55.756Z,2.53
2022-12-28T20:59:26.659Z,2.58
2022-12-28T21:01:55.648Z,2.80
2022-12-28T21:04:26.255Z,3.67
2022-12-28T21:06:58.955Z,3.45
2022-12-28T21:09:35.011Z,3.33
2022-12-28T21:12:06.810Z,3.15
2022-12-28T21:14:35.576Z,2.67
2022-12-28T21:17:13.044Z,3.33
2022-12-28T21:19:46.788Z,3.25
2022-12-28T21:24:47.311Z,3.08
2022-12-28T21:27:27.678Z,2.83
2022-12-28T21:29:56.408Z,2.83
2022-12-28T21:32:27.586Z,3.92
2022-12-28T21:34:57.310Z,2.90
2022-12-28T21:37:39.779Z,3.20
2022-12-28T21:40:11.825Z,2.30
2022-12-28T21:42:40.389Z,2.03
2022-12-28T21:45:09.271Z,2.50
2022-12-28T21:47:38.340Z,3.38
2022-12-28T21:50:09.256Z,3.50
2022-12-28T21:52:45.263Z,3.10
2022-12-28T21:55:49.864Z,5.72
2022-12-28T21:58:24.382Z,3.15
2022-12-28T22:01:10.747Z,3.83
2022-12-28T22:04:00.352Z,2.78
2022-12-28T22:06:28.941Z,3.05
2022-12-28T22:09:15.130Z,2.50
2022-12-28T22:12:08.231Z,3.30
2022-12-28T22:14:37.042Z,4.07
2022-12-28T22:17:13.840Z,3.63
2022-12-28T22:19:42.998Z,2.30
2022-12-28T22:22:11.552Z,2.70
2022-12-28T22:24:43.811Z,4.32
2022-12-28T22:27:13.871Z,4.03
2022-12-28T22:29:42.656Z,2.53
2022-12-28T22:32:13.143Z,3.10
2022-12-28T22:34:49.083Z,2.88
2022-12-28T22:37:17.690Z,3.05
2022-12-28T22:39:46.353Z,4.35
2022-12-28T22:42:16.817Z,3.25
2022-12-28T22:44:45.615Z,2.50
2022-12-28T22:47:14.297Z,2.85
2022-12-28T22:49:42.868Z,3.03
2022-12-28T22:52:13.920Z,2.53
2022-12-28T22:54:43.627Z,4.25
2022-12-28T22:57:17.750Z,3.35
2022-12-28T22:59:49.835Z,2.95
2022-12-28T23:02:18.810Z,3.35
2022-12-28T23:04:47.690Z,3.50
2022-12-28T23:07:16.300Z,5.55
2022-12-28T23:09:45.039Z,3.28
2022-12-28T23:12:15.101Z,2.72
2022-12-28T23:15:05.640Z,3.03
2022-12-28T23:17:34.287Z,3.00
2022-12-28T23:20:23.736Z,2.95
2022-12-28T23:23:06.287Z,2.83
2022-12-28T23:25:56.473Z,2.80
2022-12-28T23:28:29.658Z,2.72
2022-12-28T23:31:04.874Z,2.92
2022-12-28T23:33:37.022Z,3.92
2022-12-28T23:36:08.115Z,3.20
2022-12-28T23:38:37.847Z,3.03
2022-12-28T23:41:27.206Z,2.42
2022-12-28T23:44:00.290Z,2.95
2022-12-28T23:46:32.392Z,4.25
2022-12-28T23:49:01.060Z,2.70
2022-12-28T23:51:29.768Z,2.53
2022-12-28T23:54:11.708Z,3.63
2022-12-28T23:56:41.806Z,2.38
2022-12-28T23:59:11.563Z,2.63
